createdAt,value
2018-08-11T11:22:04.077Z,36.40
2018-08-11T11:27:02.149Z,38.60
2018-08-11T11:31:59.930Z,38.10
2018-08-11T11:36:57.704Z,37.10
2018-08-11T11:41:55.539Z,35.00
2018-08-11T11:46:53.360Z,36.70
2018-08-11T11:51:51.185Z,37.50
2018-08-11T11:56:48.910Z,36.60
2018-08-11T12:01:46.706Z,36.80
2018-08-11T12:06:44.467Z,35.40
2018-08-11T12:11:42.529Z,34.90
2018-08-11T12:16:40.230Z,33.20
2018-08-11T12:21:38.101Z,32.90
2018-08-11T12:26:35.869Z,34.80
2018-08-11T12:31:33.822Z,36.00
2018-08-11T12:36:31.700Z,34.90
2018-08-11T12:41:29.517Z,35.10
2018-08-11T12:46:27.266Z,33.40
2018-08-11T12:51:25.030Z,34.00
2018-08-11T12:56:22.716Z,33.40
2018-08-11T13:01:20.982Z,34.00
2018-08-11T13:06:18.749Z,32.80
2018-08-11T13:11:16.485Z,32.80
2018-08-11T13:16:14.221Z,35.10
2018-08-11T13:21:11.993Z,32.70
2018-08-11T13:26:09.699Z,31.10
2018-08-11T13:31:07.533Z,32.00
2018-08-11T13:36:05.327Z,31.80
2018-08-11T13:41:03.114Z,32.40
2018-08-11T13:46:00.991Z,31.70
2018-08-11T13:50:58.765Z,31.90
2018-08-11T13:55:56.582Z,30.80
2018-08-11T14:00:54.383Z,30.90
2018-08-11T14:05:52.148Z,30.10
2018-08-11T14:10:49.901Z,30.10
2018-08-11T14:15:47.670Z,31.00
2018-08-11T14:20:45.543Z,31.30
2018-08-11T14:25:44.443Z,31.10
2018-08-11T14:30:42.162Z,32.50
2018-08-11T14:35:39.929Z,31.80
2018-08-11T15:29:21.861Z,31.20
2018-08-11T15:34:19.613Z,31.00
2018-08-11T15:39:17.581Z,30.20
2018-08-11T15:44:15.333Z,30.00
2018-08-11T15:49:13.073Z,30.90
2018-08-11T15:54:10.845Z,30.50
2018-08-11T15:59:08.634Z,30.20
2018-08-11T16:04:06.388Z,30.70
2018-08-11T16:09:07.105Z,30.40
2018-08-11T16:14:06.132Z,30.10
2018-08-11T16:19:04.031Z,30.20
2018-08-11T16:24:01.794Z,30.60
2018-08-11T16:28:59.701Z,30.70
2018-08-11T16:33:57.473Z,31.40
2018-08-11T16:38:56.343Z,31.90
2018-08-11T16:43:54.313Z,32.80
2018-08-11T16:48:52.079Z,32.70
2018-08-11T16:53:49.957Z,32.90
2018-08-11T16:58:48.020Z,33.70
2018-08-11T17:03:45.761Z,33.50
2018-08-11T17:08:43.533Z,33.60
2018-08-11T17:13:41.346Z,34.50
2018-08-11T17:18:39.134Z,34.60
2018-08-11T17:23:36.913Z,35.30
2018-08-11T17:28:35.005Z,35.30
2018-08-11T17:33:32.773Z,35.70
2018-08-11T17:38:30.533Z,35.90
2018-08-11T17:43:28.317Z,35.70
2018-08-11T17:48:26.050Z,36.90
2018-08-11T17:53:24.602Z,39.50
2018-08-11T17:58:22.669Z,39.60
2018-08-11T18:03:20.510Z,40.30
2018-08-11T18:08:18.693Z,40.60
2018-08-11T18:13:16.498Z,42.20
2018-08-11T18:18:14.828Z,42.10
2018-08-11T18:23:12.811Z,42.10
